Time;durP1;ratioP1;P1;durP2;ratioP2;P2;SDS_P1;SDS_P2;PMS_P1;PMS_P2;Temp;Humidity;BMP_temperature;BMP_pressure;BME280_temperature;BME280_humidity;BME280_pressure;Samples;Min_cycle;Max_cycle;Signal;HPM_P1;HPM_P2
2021/06/28 00:00:16;;;;;;;1.60;1.30;;;26.90;52.00;;;;;;5062657;28;20059;-51
2021/06/28 00:02:42;;;;;;;1.75;1.27;;;26.90;52.00;;;;;;5058523;28;20039;-54
2021/06/28 00:05:10;;;;;;;1.60;1.30;;;26.90;52.10;;;;;;5058561;28;20028;-57
2021/06/28 00:07:37;;;;;;;1.52;1.20;;;26.90;52.00;;;;;;5056699;28;20051;-53
2021/06/28 00:10:05;;;;;;;1.60;1.23;;;26.90;52.00;;;;;;5051392;28;20101;-58
2021/06/28 00:12:31;;;;;;;2.03;1.40;;;26.80;52.00;;;;;;5058283;28;20443;-51
2021/06/28 00:14:57;;;;;;;1.70;1.30;;;26.90;52.60;;;;;;5065341;28;20037;-56
2021/06/28 00:17:24;;;;;;;1.63;1.30;;;26.90;52.00;;;;;;5047632;28;20351;-56
2021/06/28 00:19:50;;;;;;;2.00;1.55;;;26.90;52.00;;;;;;5064348;28;20132;-59
2021/06/28 00:22:16;;;;;;;1.38;1.20;;;26.80;52.00;;;;;;5065366;28;20025;-56
2021/06/28 00:24:42;;;;;;;1.58;1.27;;;26.80;52.00;;;;;;5062074;28;20109;-58
2021/06/28 00:27:08;;;;;;;1.90;1.23;;;26.80;52.00;;;;;;5063583;28;20037;-57
2021/06/28 00:29:34;;;;;;;1.42;1.13;;;26.80;52.00;;;;;;5062406;28;20028;-56
2021/06/28 00:31:59;;;;;;;1.88;1.20;;;26.80;52.00;;;;;;5059312;28;20139;-57
2021/06/28 00:34:26;;;;;;;1.50;1.20;;;26.80;52.00;;;;;;5062955;28;20447;-52
2021/06/28 00:36:52;;;;;;;1.58;1.30;;;26.80;52.00;;;;;;5053217;28;20071;-55
2021/06/28 00:39:18;;;;;;;1.60;1.25;;;26.80;52.00;;;;;;5050798;28;20435;-56
2021/06/28 00:41:43;;;;;;;1.90;1.30;;;26.80;52.00;;;;;;5068573;28;20081;-56
2021/06/28 00:44:09;;;;;;;1.50;1.30;;;26.80;52.00;;;;;;5058800;28;20170;-54
2021/06/28 00:46:34;;;;;;;1.52;1.23;;;26.80;52.00;;;;;;5049369;28;20037;-55
2021/06/28 00:49:00;;;;;;;1.63;1.20;;;26.70;52.00;;;;;;5054455;28;20029;-57
2021/06/28 00:51:26;;;;;;;1.60;1.20;;;26.70;52.00;;;;;;5068667;28;20108;-54
2021/06/28 00:53:52;;;;;;;1.20;1.10;;;26.80;52.00;;;;;;5068035;28;20024;-59
2021/06/28 00:56:18;;;;;;;1.70;1.30;;;26.80;52.00;;;;;;5068719;28;20119;-55
2021/06/28 00:58:44;;;;;;;1.50;1.30;;;26.70;52.00;;;;;;5052639;28;20376;-51
2021/06/28 01:01:11;;;;;;;1.40;1.30;;;26.80;52.00;;;;;;5066571;28;20133;-53
2021/06/28 01:03:38;;;;;;;1.58;1.40;;;26.70;52.00;;;;;;5048491;28;20527;-56
2021/06/28 01:06:05;;;;;;;1.45;1.15;;;26.70;52.00;;;;;;5063025;28;20032;-57
2021/06/28 01:08:31;;;;;;;1.70;1.35;;;26.70;52.00;;;;;;5050318;28;20074;-53
2021/06/28 01:10:57;;;;;;;1.23;1.10;;;26.70;52.50;;;;;;5055423;28;20120;-54
2021/06/28 01:13:22;;;;;;;1.60;1.30;;;26.80;52.00;;;;;;5052840;28;20376;-58
2021/06/28 01:15:48;;;;;;;1.50;1.20;;;26.70;52.00;;;;;;5054530;28;20139;-58
2021/06/28 01:18:15;;;;;;;1.30;1.20;;;26.70;52.00;;;;;;5069091;28;20071;-54
2021/06/28 01:20:41;;;;;;;1.40;1.20;;;26.70;52.00;;;;;;5052098;28;20147;-58
2021/06/28 01:23:19;;;;;;;2.00;1.40;;;26.70;52.00;;;;;;5051977;28;20135;-58
2021/06/28 01:25:46;;;;;;;1.20;1.10;;;26.70;52.00;;;;;;5055881;28;20036;-58
2021/06/28 01:28:13;;;;;;;1.60;1.30;;;26.70;52.00;;;;;;5063547;28;20051;-53
2021/06/28 01:30:39;;;;;;;1.90;1.20;;;26.70;52.00;;;;;;5059838;28;20353;-52
2021/06/28 01:33:05;;;;;;;1.45;1.20;;;26.70;52.00;;;;;;5063534;28;20043;-55
2021/06/28 01:35:30;;;;;;;1.10;1.00;;;26.70;52.00;;;;;;5055418;28;20044;-55
2021/06/28 01:37:56;;;;;;;1.73;1.25;;;26.70;52.00;;;;;;5052802;28;20036;-55
2021/06/28 01:40:21;;;;;;;1.52;1.20;;;26.70;52.00;;;;;;5060271;28;20036;-54
2021/06/28 01:42:48;;;;;;;1.40;1.20;;;26.70;52.00;;;;;;5067813;28;20033;-58
2021/06/28 01:45:21;;;;;;;1.30;1.20;;;26.60;51.90;;;;;;5060733;28;20123;-54
2021/06/28 01:47:48;;;;;;;1.33;1.20;;;26.60;52.00;;;;;;5057812;28;20328;-54
2021/06/28 01:50:15;;;;;;;1.35;1.20;;;26.60;51.90;;;;;;5065550;28;20132;-55
2021/06/28 01:52:41;;;;;;;1.50;1.23;;;26.60;52.00;;;;;;5066759;28;20031;-53
2021/06/28 01:55:09;;;;;;;1.58;1.20;;;26.60;52.00;;;;;;5064555;28;20044;-57
2021/06/28 01:57:40;;;;;;;1.63;1.23;;;26.60;52.00;;;;;;5059532;28;20016;-53
2021/06/28 02:00:06;;;;;;;1.63;1.20;;;26.60;52.00;;;;;;5056519;28;20025;-55
2021/06/28 02:02:32;;;;;;;1.38;1.10;;;26.60;52.00;;;;;;5056895;28;20035;-55
2021/06/28 02:04:58;;;;;;;1.55;1.25;;;26.60;52.00;;;;;;5051883;28;20116;-57
2021/06/28 02:07:24;;;;;;;1.55;1.13;;;26.60;52.00;;;;;;5064361;28;20360;-56
2021/06/28 02:09:50;;;;;;;1.80;1.30;;;26.60;52.00;;;;;;5058876;28;20145;-54
2021/06/28 02:12:16;;;;;;;1.77;1.30;;;26.60;52.00;;;;;;5054329;28;20093;-54
2021/06/28 02:14:42;;;;;;;1.30;1.20;;;26.60;52.00;;;;;;5066822;28;20131;-59
2021/06/28 02:17:07;;;;;;;1.73;1.20;;;26.60;52.00;;;;;;5067486;28;20051;-51
2021/06/28 02:19:33;;;;;;;2.10;1.30;;;26.60;52.00;;;;;;5058931;28;20032;-55
2021/06/28 02:22:00;;;;;;;1.70;1.20;;;26.60;52.00;;;;;;5061211;28;20741;-59
2021/06/28 02:24:25;;;;;;;1.98;1.30;;;26.60;52.00;;;;;;5048595;28;20032;-54
2021/06/28 02:26:51;;;;;;;1.20;1.10;;;26.60;52.00;;;;;;5054968;28;20025;-59
2021/06/28 02:29:17;;;;;;;1.45;1.30;;;26.60;52.00;;;;;;5060177;28;20021;-56
2021/06/28 02:31:43;;;;;;;1.80;1.40;;;26.60;52.00;;;;;;5065790;28;20584;-55
2021/06/28 02:34:09;;;;;;;1.27;1.10;;;26.60;52.00;;;;;;5066375;28;20028;-54
2021/06/28 02:36:35;;;;;;;1.42;1.23;;;26.60;52.00;;;;;;5064424;28;20036;-54
2021/06/28 02:39:03;;;;;;;1.80;1.40;;;26.60;52.00;;;;;;5057899;28;20483;-57
2021/06/28 02:41:28;;;;;;;1.75;1.30;;;26.60;52.00;;;;;;5058109;28;20036;-58
2021/06/28 02:43:55;;;;;;;1.23;1.10;;;26.50;52.00;;;;;;5066381;28;20091;-55
2021/06/28 02:46:21;;;;;;;1.48;1.20;;;26.60;52.50;;;;;;5061286;28;20028;-52
2021/06/28 02:48:47;;;;;;;1.70;1.33;;;26.60;52.00;;;;;;5055588;28;20379;-58
2021/06/28 02:51:14;;;;;;;1.48;1.20;;;26.60;52.00;;;;;;5068035;28;20028;-57
2021/06/28 02:53:40;;;;;;;1.70;1.30;;;26.60;52.00;;;;;;5073484;28;20637;-54
2021/06/28 02:56:12;;;;;;;1.35;1.20;;;26.50;52.00;;;;;;5071750;28;20055;-55
2021/06/28 02:58:40;;;;;;;1.70;1.25;;;26.50;52.00;;;;;;5064244;28;20114;-56
2021/06/28 03:01:05;;;;;;;1.35;1.25;;;26.50;52.00;;;;;;5049753;28;20029;-55
2021/06/28 03:03:31;;;;;;;1.58;1.13;;;26.50;52.00;;;;;;5055340;28;20025;-59
2021/06/28 03:05:57;;;;;;;1.60;1.25;;;26.50;52.00;;;;;;5067359;28;20047;-55
2021/06/28 03:08:22;;;;;;;1.50;1.23;;;26.50;52.00;;;;;;5055860;28;20554;-55
2021/06/28 03:10:48;;;;;;;1.63;1.30;;;26.50;52.00;;;;;;5062563;28;20059;-54
2021/06/28 03:13:14;;;;;;;1.63;1.23;;;26.50;52.00;;;;;;5061269;28;20547;-56
2021/06/28 03:15:39;;;;;;;1.73;1.40;;;26.50;52.00;;;;;;5069960;28;20035;-59
2021/06/28 03:18:05;;;;;;;1.27;1.10;;;26.50;52.00;;;;;;5067566;28;20458;-54
2021/06/28 03:20:31;;;;;;;1.50;1.27;;;26.50;52.00;;;;;;5066107;28;20041;-53
2021/06/28 03:22:56;;;;;;;1.20;1.10;;;26.50;52.00;;;;;;5066167;28;20496;-58
2021/06/28 03:25:22;;;;;;;1.70;1.25;;;26.50;52.00;;;;;;5067391;28;20029;-54
2021/06/28 03:27:48;;;;;;;1.80;1.30;;;26.50;52.00;;;;;;5057588;28;20076;-59
2021/06/28 03:30:15;;;;;;;1.90;1.40;;;26.50;52.00;;;;;;5059072;28;20033;-57
2021/06/28 03:32:41;;;;;;;1.30;1.15;;;26.50;52.00;;;;;;5056331;28;20142;-56
2021/06/28 03:35:08;;;;;;;1.52;1.20;;;26.50;52.00;;;;;;5065877;28;20083;-59
2021/06/28 03:37:34;;;;;;;1.35;1.20;;;26.50;52.00;;;;;;5056632;28;20087;-54
2021/06/28 03:40:00;;;;;;;1.20;1.10;;;26.50;52.00;;;;;;5051366;28;20041;-56
2021/06/28 03:42:25;;;;;;;1.77;1.30;;;26.50;52.00;;;;;;5060183;28;20056;-55
2021/06/28 03:44:51;;;;;;;1.40;1.20;;;26.50;52.00;;;;;;5063002;28;20029;-53
2021/06/28 03:47:16;;;;;;;1.23;1.13;;;26.50;52.00;;;;;;5061566;28;20021;-53
2021/06/28 03:49:42;;;;;;;1.75;1.40;;;26.40;52.00;;;;;;5056113;28;20107;-56
2021/06/28 03:52:07;;;;;;;3.03;1.90;;;26.40;52.30;;;;;;5056948;28;20680;-58
2021/06/28 03:54:33;;;;;;;2.97;1.90;;;26.40;52.60;;;;;;5053186;28;20033;-54
2021/06/28 03:57:00;;;;;;;3.03;2.00;;;26.30;52.90;;;;;;5062206;28;20417;-55
2021/06/28 03:59:26;;;;;;;2.40;1.90;;;26.30;53.20;;;;;;5057027;28;20035;-56
2021/06/28 04:01:51;;;;;;;3.85;1.98;;;26.20;53.20;;;;;;5045196;28;20123;-56
2021/06/28 04:04:17;;;;;;;3.03;1.83;;;26.20;53.40;;;;;;5048924;28;20104;-53
2021/06/28 04:06:43;;;;;;;3.38;1.90;;;26.20;53.40;;;;;;5052666;28;20044;-55
2021/06/28 04:09:08;;;;;;;3.47;2.00;;;26.10;53.60;;;;;;5058497;28;20860;-56
2021/06/28 04:11:34;;;;;;;3.25;2.00;;;26.10;53.90;;;;;;5062341;28;20059;-56
2021/06/28 04:14:00;;;;;;;2.95;2.10;;;26.10;54.00;;;;;;5063814;28;20049;-53
2021/06/28 04:16:26;;;;;;;2.30;1.80;;;26.00;54.10;;;;;;5066172;28;20021;-52
2021/06/28 04:18:52;;;;;;;2.35;1.70;;;26.00;54.00;;;;;;5056866;28;20438;-55
2021/06/28 04:21:18;;;;;;;2.88;1.95;;;26.00;54.20;;;;;;5067044;28;20108;-55
2021/06/28 04:23:44;;;;;;;2.38;1.80;;;25.90;54.20;;;;;;5062692;28;20048;-58
2021/06/28 04:26:09;;;;;;;2.55;1.92;;;26.00;54.20;;;;;;5066192;28;20462;-56
2021/06/28 04:28:36;;;;;;;2.92;1.83;;;25.90;54.10;;;;;;5054009;28;20087;-57
2021/06/28 04:31:04;;;;;;;4.30;2.17;;;25.90;54.10;;;;;;5057240;28;20043;-56
2021/06/28 04:33:30;;;;;;;3.10;2.00;;;25.90;54.20;;;;;;5054223;28;20024;-55
2021/06/28 04:35:55;;;;;;;2.45;1.92;;;25.90;54.20;;;;;;5066678;28;20052;-53
2021/06/28 04:38:21;;;;;;;3.20;2.30;;;25.90;54.20;;;;;;5055918;28;20546;-57
2021/06/28 04:40:48;;;;;;;4.25;2.30;;;25.90;54.10;;;;;;5061881;28;20059;-57
2021/06/28 04:43:14;;;;;;;3.22;2.10;;;25.80;54.00;;;;;;5057529;28;20136;-57
2021/06/28 04:45:39;;;;;;;2.88;2.15;;;25.80;54.20;;;;;;5056195;28;20116;-55
2021/06/28 04:48:05;;;;;;;4.10;2.13;;;25.80;54.20;;;;;;5059347;28;20037;-57
2021/06/28 04:50:31;;;;;;;3.83;2.00;;;25.70;54.30;;;;;;5065917;28;20450;-56
2021/06/28 04:52:57;;;;;;;2.80;2.08;;;25.70;54.40;;;;;;5053786;28;20017;-56
2021/06/28 04:55:23;;;;;;;2.78;2.30;;;25.70;54.40;;;;;;5060752;28;20040;-54
2021/06/28 04:57:50;;;;;;;3.88;2.22;;;25.70;54.40;;;;;;5058153;28;20064;-54
2021/06/28 05:00:18;;;;;;;4.28;2.10;;;25.70;54.50;;;;;;5056387;28;20721;-53
2021/06/28 05:02:44;;;;;;;3.40;1.90;;;25.60;54.50;;;;;;5063450;28;20024;-58
2021/06/28 05:05:11;;;;;;;4.40;2.03;;;25.60;54.80;;;;;;5059178;28;20095;-57
2021/06/28 05:07:37;;;;;;;4.38;2.00;;;25.60;54.80;;;;;;5055376;28;20032;-56
2021/06/28 05:10:05;;;;;;;4.10;2.05;;;25.60;55.10;;;;;;5063357;28;21927;-59
2021/06/28 05:12:31;;;;;;;2.70;2.03;;;25.50;55.00;;;;;;5045986;28;20108;-53
2021/06/28 05:14:56;;;;;;;3.05;2.30;;;25.50;55.10;;;;;;5053520;28;20112;-56
2021/06/28 05:17:24;;;;;;;2.72;2.20;;;25.50;55.10;;;;;;5062866;28;20039;-55
2021/06/28 05:19:50;;;;;;;4.50;2.17;;;25.50;55.00;;;;;;5058913;28;20029;-53
2021/06/28 05:22:16;;;;;;;3.10;2.20;;;25.50;55.00;;;;;;5064026;28;20028;-57
2021/06/28 05:24:41;;;;;;;4.40;2.65;;;25.50;55.00;;;;;;5049088;28;20033;-55
2021/06/28 05:27:07;;;;;;;4.55;2.42;;;25.50;55.20;;;;;;5051424;28;20455;-53
2021/06/28 05:29:33;;;;;;;3.83;2.45;;;25.40;55.00;;;;;;5055197;28;20032;-54
2021/06/28 05:31:59;;;;;;;5.07;2.72;;;25.50;55.50;;;;;;5056757;28;20057;-59
2021/06/28 05:34:24;;;;;;;4.15;2.60;;;25.50;55.30;;;;;;5067103;28;20059;-55
2021/06/28 05:36:50;;;;;;;5.30;2.55;;;25.50;55.20;;;;;;5058359;28;20068;-58
2021/06/28 05:39:16;;;;;;;4.15;2.50;;;25.60;55.10;;;;;;5059043;28;20100;-54
2021/06/28 05:41:41;;;;;;;4.13;2.47;;;25.60;55.00;;;;;;5057147;28;20040;-54
2021/06/28 05:44:07;;;;;;;5.10;2.72;;;25.60;54.90;;;;;;5059805;28;20102;-53
2021/06/28 05:46:33;;;;;;;5.50;2.78;;;25.60;54.70;;;;;;5059968;28;20551;-56
2021/06/28 05:48:58;;;;;;;4.13;2.40;;;25.60;54.60;;;;;;5064381;28;20068;-58
2021/06/28 05:51:24;;;;;;;3.90;2.60;;;25.70;54.60;;;;;;5067918;28;20033;-54
2021/06/28 05:53:50;;;;;;;4.60;2.70;;;25.70;54.50;;;;;;5067474;28;20036;-57
2021/06/28 05:56:15;;;;;;;4.22;2.40;;;25.70;54.40;;;;;;5061867;28;20040;-56
2021/06/28 05:58:42;;;;;;;4.07;2.50;;;25.80;54.40;;;;;;5055969;28;20043;-53
2021/06/28 06:01:09;;;;;;;3.92;2.50;;;25.80;54.20;;;;;;5056767;28;20144;-54
2021/06/28 06:03:35;;;;;;;2.97;2.17;;;25.80;54.20;;;;;;5064969;28;20086;-54
2021/06/28 06:06:01;;;;;;;3.17;2.50;;;25.90;54.20;;;;;;5048678;28;20033;-56
2021/06/28 06:08:27;;;;;;;3.55;2.60;;;25.90;54.20;;;;;;5055185;28;20503;-57
2021/06/28 06:10:58;;;;;;;4.00;2.45;;;25.90;54.00;;;;;;5063870;28;20036;-52
2021/06/28 06:13:24;;;;;;;4.68;2.42;;;25.90;54.00;;;;;;5058603;28;20032;-56
2021/06/28 06:15:50;;;;;;;4.43;2.60;;;26.00;54.00;;;;;;5054927;28;20037;-58
2021/06/28 06:18:16;;;;;;;3.80;2.25;;;26.00;53.90;;;;;;5066138;28;20028;-58
2021/06/28 06:20:43;;;;;;;3.80;2.30;;;26.00;53.80;;;;;;5058480;28;20035;-52
2021/06/28 06:23:09;;;;;;;2.90;2.17;;;26.00;53.80;;;;;;5062435;28;20020;-55
2021/06/28 06:25:35;;;;;;;2.90;2.30;;;26.10;53.80;;;;;;5064814;28;20355;-52
2021/06/28 06:28:01;;;;;;;3.28;2.30;;;26.10;53.70;;;;;;5064258;28;20086;-56
2021/06/28 06:30:26;;;;;;;3.40;2.25;;;26.10;53.70;;;;;;5063282;28;20106;-56
2021/06/28 06:32:52;;;;;;;4.13;2.30;;;26.10;53.70;;;;;;5056444;28;20086;-56
2021/06/28 06:35:21;;;;;;;4.35;2.53;;;26.10;53.60;;;;;;5054686;28;20047;-54
2021/06/28 06:37:49;;;;;;;3.47;2.70;;;26.20;53.70;;;;;;5064243;28;20040;-55
2021/06/28 06:40:14;;;;;;;3.25;2.58;;;26.20;53.60;;;;;;5058576;28;20039;-53
2021/06/28 06:42:40;;;;;;;3.70;2.40;;;26.20;53.60;;;;;;5060800;28;20020;-56
2021/06/28 06:45:07;;;;;;;4.00;2.45;;;26.20;53.60;;;;;;5064759;28;20021;-51
2021/06/28 06:47:33;;;;;;;2.90;2.20;;;26.20;53.70;;;;;;5051091;28;20028;-57
2021/06/28 06:49:58;;;;;;;3.97;2.70;;;26.30;53.90;;;;;;5065250;28;20451;-55
2021/06/28 06:52:24;;;;;;;3.33;2.55;;;26.30;53.90;;;;;;5060786;28;20024;-58
2021/06/28 06:54:50;;;;;;;3.33;2.53;;;26.30;53.80;;;;;;5055124;28;20112;-53
2021/06/28 06:57:15;;;;;;;3.50;2.35;;;26.40;53.80;;;;;;5059684;28;20036;-57
2021/06/28 06:59:41;;;;;;;3.83;2.40;;;26.40;53.80;;;;;;5065998;28;20032;-56
2021/06/28 07:02:07;;;;;;;3.75;2.65;;;26.40;54.20;;;;;;5053095;28;20516;-59
2021/06/28 07:04:33;;;;;;;2.80;2.17;;;26.40;53.90;;;;;;5047888;28;20041;-56
2021/06/28 07:07:00;;;;;;;3.50;2.40;;;26.50;53.70;;;;;;5059481;28;20031;-55
2021/06/28 07:09:27;;;;;;;3.08;2.55;;;26.50;54.00;;;;;;5066277;28;20163;-53
2021/06/28 07:11:52;;;;;;;3.58;2.33;;;26.50;53.50;;;;;;5057561;28;20476;-56
2021/06/28 07:14:18;;;;;;;3.15;2.40;;;26.50;54.10;;;;;;5055411;28;20132;-49
2021/06/28 07:16:44;;;;;;;3.13;2.20;;;26.60;53.70;;;;;;5052283;28;20040;-52
2021/06/28 07:19:10;;;;;;;3.78;2.80;;;26.60;53.90;;;;;;5053786;28;20184;-51
2021/06/28 07:21:36;;;;;;;3.20;2.22;;;26.60;53.40;;;;;;5075648;28;20044;-48
2021/06/28 07:24:02;;;;;;;3.03;2.35;;;26.60;53.30;;;;;;5065876;28;20363;-57
2021/06/28 07:26:28;;;;;;;2.50;2.25;;;26.60;53.30;;;;;;5061265;28;20387;-57
2021/06/28 07:28:55;;;;;;;2.40;1.83;;;26.60;53.30;;;;;;5052537;28;20025;-55
2021/06/28 07:31:21;;;;;;;4.00;2.30;;;26.60;53.50;;;;;;5058592;28;20380;-59
2021/06/28 07:33:47;;;;;;;3.70;2.53;;;26.60;53.60;;;;;;5056097;28;20048;-51
2021/06/28 07:36:13;;;;;;;3.20;2.22;;;26.70;53.50;;;;;;5065569;28;20459;-55
2021/06/28 07:38:39;;;;;;;2.70;2.20;;;26.70;53.30;;;;;;5066799;28;20047;-55
2021/06/28 07:41:06;;;;;;;2.63;2.00;;;26.70;53.20;;;;;;5067268;28;20040;-56
2021/06/28 07:43:32;;;;;;;2.47;2.10;;;26.70;53.10;;;;;;5067926;28;20464;-54
2021/06/28 07:45:58;;;;;;;2.95;1.95;;;26.70;53.30;;;;;;5063659;28;20487;-60
2021/06/28 07:48:24;;;;;;;3.90;2.67;;;26.80;54.10;;;;;;5056390;28;20128;-54
2021/06/28 07:50:50;;;;;;;4.40;2.42;;;26.80;54.30;;;;;;5065494;28;20052;-54
2021/06/28 07:53:16;;;;;;;2.80;2.08;;;26.80;54.60;;;;;;5058618;28;20025;-58
2021/06/28 07:55:43;;;;;;;2.78;2.03;;;26.90;54.40;;;;;;5056461;28;20032;-58
2021/06/28 07:58:09;;;;;;;3.00;2.15;;;26.90;54.40;;;;;;5054808;28;20031;-55
2021/06/28 08:00:35;;;;;;;2.50;1.95;;;26.90;54.30;;;;;;5066293;28;20496;-60
2021/06/28 08:03:02;;;;;;;2.55;2.00;;;26.90;54.20;;;;;;5056774;28;20051;-58
2021/06/28 08:05:27;;;;;;;2.88;2.08;;;27.00;54.30;;;;;;5051213;28;20029;-56
2021/06/28 08:07:53;;;;;;;2.50;2.00;;;27.00;54.30;;;;;;5050307;28;20040;-54
2021/06/28 08:10:19;;;;;;;2.58;1.80;;;27.00;54.30;;;;;;5068092;28;20031;-54
2021/06/28 08:12:46;;;;;;;2.45;1.98;;;27.10;54.60;;;;;;5057163;28;20445;-53
2021/06/28 08:15:15;;;;;;;2.20;1.90;;;27.10;54.80;;;;;;5052822;28;20020;-55
2021/06/28 08:17:42;;;;;;;2.30;1.60;;;27.20;54.40;;;;;;5054282;28;20380;-54
2021/06/28 08:20:08;;;;;;;2.78;1.98;;;27.20;54.20;;;;;;5069566;28;20103;-51
2021/06/28 08:22:36;;;;;;;2.35;1.92;;;27.30;54.00;;;;;;5067442;28;20037;-56
2021/06/28 08:25:05;;;;;;;2.53;1.92;;;27.30;53.90;;;;;;5064032;28;20107;-55
2021/06/28 08:27:31;;;;;;;3.80;1.83;;;27.30;53.80;;;;;;5065781;28;20475;-59
2021/06/28 08:29:57;;;;;;;2.00;1.70;;;27.40;53.70;;;;;;5062590;28;20099;-56
2021/06/28 08:32:22;;;;;;;2.47;1.80;;;27.40;53.50;;;;;;5059253;28;20040;-52
2021/06/28 08:34:48;;;;;;;2.28;1.88;;;27.40;53.90;;;;;;5051141;28;20036;-53
2021/06/28 08:37:14;;;;;;;2.03;1.65;;;27.50;53.60;;;;;;5061766;28;20036;-57
2021/06/28 08:39:39;;;;;;;2.08;1.60;;;27.50;53.50;;;;;;5065003;28;20033;-49
2021/06/28 08:42:06;;;;;;;2.05;1.50;;;27.50;53.10;;;;;;5060894;28;20565;-56
2021/06/28 08:44:32;;;;;;;2.50;1.70;;;27.50;52.90;;;;;;5068306;28;20024;-53
2021/06/28 08:46:58;;;;;;;1.80;1.40;;;27.60;52.70;;;;;;5059685;28;20037;-54
2021/06/28 08:49:24;;;;;;;2.42;1.60;;;27.60;52.80;;;;;;5058688;28;20024;-52
2021/06/28 08:51:51;;;;;;;2.03;1.60;;;27.60;52.80;;;;;;5067078;28;20363;-56
2021/06/28 08:54:17;;;;;;;2.50;2.10;;;27.70;52.90;;;;;;5054251;28;20106;-51
2021/06/28 08:56:45;;;;;;;2.47;1.90;;;27.70;52.10;;;;;;5058526;28;20497;-54
2021/06/28 08:59:11;;;;;;;1.85;1.55;;;27.80;52.00;;;;;;5061208;28;20412;-54
2021/06/28 09:01:38;;;;;;;2.65;1.70;;;27.80;51.90;;;;;;5052854;28;20052;-55
2021/06/28 09:04:06;;;;;;;2.30;1.80;;;27.80;52.00;;;;;;5067469;28;20021;-55
2021/06/28 09:06:31;;;;;;;2.70;1.90;;;27.80;51.80;;;;;;5054809;28;20506;-52
2021/06/28 09:09:01;;;;;;;2.38;1.60;;;27.90;51.80;;;;;;5058285;28;20021;-54
2021/06/28 09:11:27;;;;;;;2.15;1.80;;;28.00;51.40;;;;;;5058855;28;20412;-57
2021/06/28 09:13:56;;;;;;;1.85;1.60;;;28.00;51.30;;;;;;5053098;28;20135;-54
2021/06/28 09:16:27;;;;;;;2.47;1.60;;;28.00;51.30;;;;;;5049005;28;20420;-54
2021/06/28 09:18:55;;;;;;;2.00;1.50;;;28.00;51.40;;;;;;5054290;28;20033;-57
2021/06/28 09:21:25;;;;;;;1.88;1.40;;;28.00;51.50;;;;;;5069010;28;20033;-56
2021/06/28 09:23:51;;;;;;;2.28;1.50;;;28.00;51.60;;;;;;5066584;28;20115;-52
2021/06/28 09:26:18;;;;;;;1.77;1.48;;;28.00;51.60;;;;;;5058078;28;20111;-56
2021/06/28 09:28:47;;;;;;;1.88;1.65;;;28.10;51.50;;;;;;5059613;28;20581;-52
2021/06/28 09:31:18;;;;;;;;;;;28.20;51.30;;;;;;5066392;28;20028;-55
2021/06/28 09:34:02;;;;;;;1.80;1.42;;;28.20;51.80;;;;;;5063451;28;19920;-55
2021/06/28 09:36:27;;;;;;;1.67;1.40;;;28.20;51.30;;;;;;5064070;28;20107;-51
2021/06/28 09:38:53;;;;;;;1.92;1.55;;;28.20;51.20;;;;;;5059842;28;20182;-57
2021/06/28 09:41:30;;;;;;;1.70;1.50;;;28.20;51.10;;;;;;5065804;28;20032;-54
2021/06/28 09:44:14;;;;;;;3.90;1.80;;;28.30;51.50;;;;;;5057141;28;20052;-54
2021/06/28 09:46:40;;;;;;;1.60;1.40;;;28.30;51.30;;;;;;5061317;28;20067;-54
2021/06/28 09:49:07;;;;;;;1.60;1.45;;;28.30;51.30;;;;;;5060839;28;20020;-54
2021/06/28 09:51:36;;;;;;;1.55;1.42;;;28.30;51.30;;;;;;5068491;28;20056;-56
2021/06/28 09:54:14;;;;;;;2.05;1.60;;;28.30;51.20;;;;;;5066989;28;20460;-55
2021/06/28 09:56:45;;;;;;;1.85;1.30;;;28.30;51.30;;;;;;5062733;28;20128;-58
2021/06/28 09:59:32;;;;;;;1.60;1.30;;;28.30;51.30;;;;;;5052204;28;20017;-58
2021/06/28 10:02:22;;;;;;;1.90;1.50;;;28.30;51.30;;;;;;5057120;28;20378;-54
2021/06/28 10:05:03;;;;;;;1.75;1.30;;;28.30;51.10;;;;;;5053898;28;20105;-60
2021/06/28 10:07:30;;;;;;;1.92;1.50;;;28.30;51.50;;;;;;5064384;28;20436;-58
2021/06/28 10:10:40;;;;;;;1.95;1.42;;;28.30;51.10;;;;;;5062232;28;20102;-55
2021/06/28 10:13:07;;;;;;;1.50;1.33;;;28.30;51.20;;;;;;5050290;28;20055;-53
2021/06/28 10:15:36;;;;;;;1.90;1.45;;;28.40;51.30;;;;;;5065622;28;20060;-57
2021/06/28 10:18:03;;;;;;;1.70;1.30;;;28.40;51.30;;;;;;5061743;28;20598;-58
2021/06/28 10:20:33;;;;;;;1.67;1.30;;;28.40;51.30;;;;;;5052515;28;20427;-55
2021/06/28 10:22:58;;;;;;;;;;;28.40;51.30;;;;;;5056291;28;20024;-58
2021/06/28 10:25:27;;;;;;;1.50;1.30;;;28.40;51.30;;;;;;5056218;28;19916;-58
2021/06/28 10:27:54;;;;;;;1.67;1.40;;;28.40;51.30;;;;;;5052079;28;20131;-54
2021/06/28 10:30:23;;;;;;;1.90;1.35;;;28.40;51.30;;;;;;5057397;28;20017;-55
2021/06/28 10:32:55;;;;;;;1.67;1.30;;;28.40;51.20;;;;;;5050953;28;20490;-53
2021/06/28 10:35:26;;;;;;;1.95;1.40;;;28.50;51.10;;;;;;5052204;28;20781;-59
2021/06/28 10:37:52;;;;;;;1.92;1.30;;;28.50;50.90;;;;;;5055278;28;20056;-56
2021/06/28 10:40:23;;;;;;;2.05;1.58;;;28.40;50.80;;;;;;5054332;28;20063;-58
2021/06/28 10:42:54;;;;;;;1.95;1.40;;;28.50;50.80;;;;;;5055607;28;22810;-58
2021/06/28 10:45:42;;;;;;;1.55;1.20;;;28.50;50.70;;;;;;5058341;28;20912;-55
2021/06/28 10:48:17;;;;;;;1.80;1.40;;;28.50;50.80;;;;;;5047563;28;20025;-60
2021/06/28 10:50:58;;;;;;;1.30;1.20;;;28.50;50.90;;;;;;5054512;28;20021;-58
2021/06/28 10:53:33;;;;;;;1.42;1.20;;;28.50;51.10;;;;;;5051915;28;20471;-56
2021/06/28 10:56:26;;;;;;;2.78;1.33;;;28.50;51.20;;;;;;5051817;28;20025;-61
2021/06/28 10:59:23;;;;;;;1.40;1.20;;;28.50;51.30;;;;;;5057446;28;20059;-53
2021/06/28 11:01:55;;;;;;;1.67;1.25;;;28.60;51.40;;;;;;5052634;28;20063;-60
2021/06/28 11:04:29;;;;;;;1.30;1.10;;;28.60;51.40;;;;;;5054229;28;20037;-56
2021/06/28 11:07:02;;;;;;;1.55;1.27;;;28.60;51.50;;;;;;5062114;28;20036;-54
2021/06/28 11:09:54;;;;;;;1.75;1.27;;;28.60;51.50;;;;;;5061582;28;20025;-55
2021/06/28 11:12:23;;;;;;;1.70;1.15;;;28.70;51.70;;;;;;5054028;28;20116;-58
2021/06/28 11:15:06;;;;;;;1.58;1.25;;;28.70;51.70;;;;;;5049544;28;20044;-54
2021/06/28 11:17:54;;;;;;;2.20;1.50;;;28.70;51.90;;;;;;5065649;28;20206;-57
2021/06/28 11:20:25;;;;;;;2.00;1.60;;;28.70;51.90;;;;;;5058770;28;20083;-51
2021/06/28 11:23:04;;;;;;;2.60;1.50;;;28.80;51.80;;;;;;5061709;28;20046;-55
2021/06/28 11:25:42;;;;;;;2.58;1.52;;;28.80;51.70;;;;;;5055569;28;20112;-53
2021/06/28 11:28:29;;;;;;;2.17;1.53;;;28.80;51.50;;;;;;5052708;28;20029;-56
2021/06/28 11:31:04;;;;;;;2.03;1.60;;;28.80;51.50;;;;;;5049356;28;20073;-57
2021/06/28 11:33:37;;;;;;;1.98;1.60;;;28.80;51.30;;;;;;5053065;28;20043;-56
2021/06/28 11:36:03;;;;;;;1.88;1.38;;;28.80;51.30;;;;;;5045703;28;20158;-51
2021/06/28 11:38:37;;;;;;;2.35;1.60;;;28.80;51.40;;;;;;5055484;28;20037;-55
2021/06/28 11:41:14;;;;;;;1.92;1.50;;;28.80;51.60;;;;;;5050870;28;20032;-58
2021/06/28 11:43:53;;;;;;;3.05;1.50;;;28.80;51.60;;;;;;5051126;28;20037;-58
2021/06/28 11:46:28;;;;;;;1.80;1.40;;;28.80;51.50;;;;;;5064616;28;20108;-58
2021/06/28 11:48:56;;;;;;;1.77;1.40;;;28.80;51.40;;;;;;5059633;28;20029;-56
2021/06/28 11:51:43;;;;;;;2.13;1.50;;;28.80;51.40;;;;;;5063220;28;20037;-57
2021/06/28 11:54:18;;;;;;;1.85;1.50;;;28.80;51.20;;;;;;5049239;28;20511;-61
2021/06/28 11:56:57;;;;;;;2.05;1.50;;;28.80;51.60;;;;;;5055915;28;20489;-59
2021/06/28 11:59:25;;;;;;;1.42;1.33;;;28.90;51.30;;;;;;5054326;28;20032;-52
2021/06/28 12:01:54;;;;;;;1.85;1.50;;;28.90;51.40;;;;;;5056486;28;20555;-59
2021/06/28 12:04:21;;;;;;;1.50;1.33;;;28.80;51.50;;;;;;5047037;28;20450;-60
2021/06/28 12:06:49;;;;;;;1.50;1.25;;;28.90;51.70;;;;;;5044881;28;20053;-57
2021/06/28 12:09:17;;;;;;;1.75;1.40;;;28.90;51.50;;;;;;5065506;28;20028;-57
2021/06/28 12:11:53;;;;;;;1.77;1.40;;;28.90;51.50;;;;;;5046084;28;20166;-59
2021/06/28 12:14:31;;;;;;;1.70;1.40;;;28.90;51.60;;;;;;5053614;28;20107;-58
2021/06/28 12:16:57;;;;;;;1.95;1.45;;;28.90;51.40;;;;;;5060614;28;20067;-53
2021/06/28 12:19:23;;;;;;;1.70;1.40;;;28.90;51.40;;;;;;5066393;28;20035;-59
2021/06/28 12:21:49;;;;;;;1.80;1.40;;;28.90;51.50;;;;;;5061346;28;20086;-58
2021/06/28 12:24:20;;;;;;;1.90;1.40;;;29.00;51.50;;;;;;5054940;28;20017;-57
2021/06/28 12:27:07;;;;;;;1.88;1.50;;;29.00;51.50;;;;;;5050601;28;20356;-56
2021/06/28 12:29:41;;;;;;;1.92;1.40;;;28.90;51.50;;;;;;5059204;28;20040;-56
2021/06/28 12:32:10;;;;;;;1.50;1.27;;;29.00;51.50;;;;;;5063777;28;20124;-59
2021/06/28 12:34:37;;;;;;;1.45;1.35;;;29.00;51.40;;;;;;5057402;28;20032;-53
2021/06/28 12:37:04;;;;;;;1.80;1.42;;;28.90;51.10;;;;;;5058379;28;20060;-55
2021/06/28 12:39:30;;;;;;;1.80;1.30;;;29.00;51.00;;;;;;5065116;28;20021;-54
2021/06/28 12:42:20;;;;;;;2.00;1.60;;;29.00;50.90;;;;;;5059237;28;20063;-60
2021/06/28 12:44:47;;;;;;;1.75;1.42;;;29.00;51.10;;;;;;5053862;28;20024;-53
2021/06/28 12:47:17;;;;;;;1.73;1.42;;;29.00;51.10;;;;;;5059062;28;20028;-61
2021/06/28 12:49:43;;;;;;;1.80;1.40;;;29.00;51.10;;;;;;5060168;28;20035;-60
2021/06/28 12:52:31;;;;;;;1.50;1.20;;;29.00;51.10;;;;;;5046757;28;20025;-58